Terminal Aerodrome Forecast
Issued by NWS

Home | Current Version | Previous Version | Text Only | Print | Product List | Glossary On
Versions: 1 2 3 4 5 6 7 8 9 10 11 12
000
FTUS45 KTFX 212300
TAFLWT
TAF
KLWT 212337Z 2200/2224 24011KT P6SM SCT150
     FM220700 23012G22KT P6SM BKN090
     FM221800 24018G30KT P6SM VCSH SCT090 BKN150
     FM222100 27020G32KT P6SM BKN090
      TEMPO 2221/2224 -SHRA BKN050=

USA.gov is the U.S. government's official web portal to all federal, state and local government web resources and services.